sensor_id;sensor_type;location;lat;lon;timestamp;temperature;humidity
14357;DHT22;7262;48.764;9.166;2023-04-01T00:00:56;9.10;99.90
14357;DHT22;7262;48.764;9.166;2023-04-01T00:03:24;9.10;99.90
14357;DHT22;7262;48.764;9.166;2023-04-01T00:05:51;9.20;99.90
14357;DHT22;7262;48.764;9.166;2023-04-01T00:08:19;9.10;99.90
14357;DHT22;7262;48.764;9.166;2023-04-01T00:10:46;9.20;99.90
14357;DHT22;7262;48.764;9.166;2023-04-01T00:13:13;9.20;99.90
14357;DHT22;7262;48.764;9.166;2023-04-01T00:15:42;9.20;99.90
14357;DHT22;7262;48.764;9.166;2023-04-01T00:18:10;9.30;99.90
14357;DHT22;7262;48.764;9.166;2023-04-01T00:20:37;9.30;99.90
14357;DHT22;7262;48.764;9.166;2023-04-01T00:23:04;9.30;99.90
14357;DHT22;7262;48.764;9.166;2023-04-01T00:25:31;9.30;99.90
14357;DHT22;7262;48.764;9.166;2023-04-01T00:27:58;9.30;99.90
14357;DHT22;7262;48.764;9.166;2023-04-01T00:30:25;9.30;99.90
14357;DHT22;7262;48.764;9.166;2023-04-01T00:32:53;9.30;99.90
14357;DHT22;7262;48.764;9.166;2023-04-01T00:35:20;9.20;99.90
14357;DHT22;7262;48.764;9.166;2023-04-01T00:37:47;9.20;99.90
14357;DHT22;7262;48.764;9.166;2023-04-01T00:40:21;9.20;99.90
14357;DHT22;7262;48.764;9.166;2023-04-01T00:42:48;9.20;99.90
14357;DHT22;7262;48.764;9.166;2023-04-01T00:45:26;9.20;99.90
14357;DHT22;7262;48.764;9.166;2023-04-01T00:47:55;9.30;99.90
14357;DHT22;7262;48.764;9.166;2023-04-01T00:50:23;9.30;99.90
14357;DHT22;7262;48.764;9.166;2023-04-01T00:52:51;9.30;99.90
14357;DHT22;7262;48.764;9.166;2023-04-01T00:55:18;9.30;99.90
14357;DHT22;7262;48.764;9.166;2023-04-01T00:57:46;9.30;99.90
14357;DHT22;7262;48.764;9.166;2023-04-01T01:00:15;9.20;99.90
14357;DHT22;7262;48.764;9.166;2023-04-01T01:02:43;9.20;99.90
14357;DHT22;7262;48.764;9.166;2023-04-01T01:05:12;9.20;99.90
14357;DHT22;7262;48.764;9.166;2023-04-01T01:07:41;9.20;99.90
14357;DHT22;7262;48.764;9.166;2023-04-01T01:10:12;9.20;99.90
14357;DHT22;7262;48.764;9.166;2023-04-01T01:12:43;9.20;99.90
14357;DHT22;7262;48.764;9.166;2023-04-01T01:15:12;9.10;99.90
14357;DHT22;7262;48.764;9.166;2023-04-01T01:17:44;9.10;99.90
14357;DHT22;7262;48.764;9.166;2023-04-01T01:23:08;9.00;99.90
14357;DHT22;7262;48.764;9.166;2023-04-01T01:25:42;9.00;99.90
14357;DHT22;7262;48.764;9.166;2023-04-01T01:28:17;9.00;99.90
14357;DHT22;7262;48.764;9.166;2023-04-01T01:30:48;9.00;99.90
14357;DHT22;7262;48.764;9.166;2023-04-01T01:33:22;9.00;99.90
14357;DHT22;7262;48.764;9.166;2023-04-01T01:35:53;9.10;99.90
14357;DHT22;7262;48.764;9.166;2023-04-01T01:38:21;9.10;99.90
14357;DHT22;7262;48.764;9.166;2023-04-01T01:40:50;9.10;99.90
14357;DHT22;7262;48.764;9.166;2023-04-01T01:43:19;9.10;99.90
14357;DHT22;7262;48.764;9.166;2023-04-01T01:45:48;9.00;99.90
14357;DHT22;7262;48.764;9.166;2023-04-01T01:48:16;9.00;99.90
14357;DHT22;7262;48.764;9.166;2023-04-01T01:50:43;9.00;99.90
14357;DHT22;7262;48.764;9.166;2023-04-01T01:53:12;8.90;99.90
14357;DHT22;7262;48.764;9.166;2023-04-01T01:55:40;8.90;99.90
14357;DHT22;7262;48.764;9.166;2023-04-01T01:58:09;8.90;99.90
14357;DHT22;7262;48.764;9.166;2023-04-01T02:00:48;8.90;99.90
14357;DHT22;7262;48.764;9.166;2023-04-01T02:03:15;8.80;99.90
14357;DHT22;7262;48.764;9.166;2023-04-01T02:05:43;8.80;99.90
14357;DHT22;7262;48.764;9.166;2023-04-01T02:08:13;8.80;99.90
14357;DHT22;7262;48.764;9.166;2023-04-01T02:10:42;8.80;99.90
14357;DHT22;7262;48.764;9.166;2023-04-01T02:13:11;8.80;99.90
14357;DHT22;7262;48.764;9.166;2023-04-01T02:15:41;8.80;99.90
14357;DHT22;7262;48.764;9.166;2023-04-01T02:18:09;8.80;99.90
14357;DHT22;7262;48.764;9.166;2023-04-01T02:20:37;8.80;99.90
14357;DHT22;7262;48.764;9.166;2023-04-01T02:23:05;8.80;99.90
14357;DHT22;7262;48.764;9.166;2023-04-01T02:25:34;8.80;99.90
14357;DHT22;7262;48.764;9.166;2023-04-01T02:28:02;8.80;99.90
14357;DHT22;7262;48.764;9.166;2023-04-01T02:30:31;8.80;99.90
14357;DHT22;7262;48.764;9.166;2023-04-01T02:32:58;8.70;99.90
14357;DHT22;7262;48.764;9.166;2023-04-01T02:35:25;8.70;99.90
14357;DHT22;7262;48.764;9.166;2023-04-01T02:37:53;8.70;99.90
14357;DHT22;7262;48.764;9.166;2023-04-01T02:40:21;8.80;99.90
14357;DHT22;7262;48.764;9.166;2023-04-01T02:42:50;8.80;99.90
14357;DHT22;7262;48.764;9.166;2023-04-01T02:45:17;8.80;99.90
14357;DHT22;7262;48.764;9.166;2023-04-01T02:47:44;8.70;99.90
14357;DHT22;7262;48.764;9.166;2023-04-01T02:50:11;8.70;99.90
14357;DHT22;7262;48.764;9.166;2023-04-01T02:52:38;8.70;99.90
14357;DHT22;7262;48.764;9.166;2023-04-01T02:55:05;8.70;99.90
14357;DHT22;7262;48.764;9.166;2023-04-01T02:57:32;8.70;99.90
14357;DHT22;7262;48.764;9.166;2023-04-01T03:00:01;8.70;99.90
14357;DHT22;7262;48.764;9.166;2023-04-01T03:02:28;8.70;99.90
14357;DHT22;7262;48.764;9.166;2023-04-01T03:04:55;8.70;99.90
14357;DHT22;7262;48.764;9.166;2023-04-01T03:07:22;8.70;99.90
14357;DHT22;7262;48.764;9.166;2023-04-01T03:09:49;8.70;99.90
14357;DHT22;7262;48.764;9.166;2023-04-01T03:12:17;8.60;99.90
14357;DHT22;7262;48.764;9.166;2023-04-01T03:14:43;8.60;99.90
14357;DHT22;7262;48.764;9.166;2023-04-01T03:17:14;8.60;99.90
14357;DHT22;7262;48.764;9.166;2023-04-01T03:19:41;8.60;99.90
14357;DHT22;7262;48.764;9.166;2023-04-01T03:22:08;8.60;99.90
14357;DHT22;7262;48.764;9.166;2023-04-01T03:24:36;8.60;99.90
14357;DHT22;7262;48.764;9.166;2023-04-01T03:27:02;8.50;99.90
14357;DHT22;7262;48.764;9.166;2023-04-01T03:29:29;8.50;99.90
14357;DHT22;7262;48.764;9.166;2023-04-01T03:31:56;8.40;99.90
14357;DHT22;7262;48.764;9.166;2023-04-01T03:34:26;8.50;99.90
14357;DHT22;7262;48.764;9.166;2023-04-01T03:36:53;8.50;99.90
14357;DHT22;7262;48.764;9.166;2023-04-01T03:39:21;8.50;99.90
14357;DHT22;7262;48.764;9.166;2023-04-01T03:41:48;8.60;99.90
14357;DHT22;7262;48.764;9.166;2023-04-01T03:44:15;8.60;99.90
14357;DHT22;7262;48.764;9.166;2023-04-01T03:46:41;8.60;99.90
14357;DHT22;7262;48.764;9.166;2023-04-01T03:49:09;8.60;99.90
14357;DHT22;7262;48.764;9.166;2023-04-01T03:51:40;8.60;99.90
14357;DHT22;7262;48.764;9.166;2023-04-01T03:54:07;8.70;99.90
14357;DHT22;7262;48.764;9.166;2023-04-01T03:56:34;8.70;99.90
14357;DHT22;7262;48.764;9.166;2023-04-01T03:59:01;8.70;99.90
14357;DHT22;7262;48.764;9.166;2023-04-01T04:01:29;8.60;99.90
14357;DHT22;7262;48.764;9.166;2023-04-01T04:03:56;8.60;99.90
14357;DHT22;7262;48.764;9.166;2023-04-01T04:06:22;8.60;99.90
14357;DHT22;7262;48.764;9.166;2023-04-01T04:08:51;8.50;99.90
14357;DHT22;7262;48.764;9.166;2023-04-01T04:11:18;8.50;99.90
14357;DHT22;7262;48.764;9.166;2023-04-01T04:13:45;8.40;99.90
14357;DHT22;7262;48.764;9.166;2023-04-01T04:16:13;8.40;99.90
14357;DHT22;7262;48.764;9.166;2023-04-01T04:18:40;8.40;99.90
14357;DHT22;7262;48.764;9.166;2023-04-01T04:21:07;8.40;99.90
14357;DHT22;7262;48.764;9.166;2023-04-01T04:23:33;8.40;99.90
14357;DHT22;7262;48.764;9.166;2023-04-01T04:26:04;8.40;99.90
14357;DHT22;7262;48.764;9.166;2023-04-01T04:28:33;8.30;99.90
14357;DHT22;7262;48.764;9.166;2023-04-01T04:31:02;8.30;99.90
14357;DHT22;7262;48.764;9.166;2023-04-01T04:33:30;8.30;99.90
14357;DHT22;7262;48.764;9.166;2023-04-01T04:35:57;8.30;99.90
14357;DHT22;7262;48.764;9.166;2023-04-01T04:38:25;8.20;99.90
14357;DHT22;7262;48.764;9.166;2023-04-01T04:40:52;8.20;99.90
14357;DHT22;7262;48.764;9.166;2023-04-01T04:43:21;8.20;99.90
14357;DHT22;7262;48.764;9.166;2023-04-01T04:45:48;8.10;99.90
14357;DHT22;7262;48.764;9.166;2023-04-01T04:48:15;8.10;99.90
14357;DHT22;7262;48.764;9.166;2023-04-01T04:50:44;8.10;99.90
14357;DHT22;7262;48.764;9.166;2023-04-01T04:53:10;8.10;99.90
14357;DHT22;7262;48.764;9.166;2023-04-01T04:55:37;8.10;99.90
14357;DHT22;7262;48.764;9.166;2023-04-01T04:58:04;8.20;99.90
14357;DHT22;7262;48.764;9.166;2023-04-01T05:00:33;8.10;99.90
14357;DHT22;7262;48.764;9.166;2023-04-01T05:03:00;8.10;99.90
14357;DHT22;7262;48.764;9.166;2023-04-01T05:05:27;8.10;99.90
14357;DHT22;7262;48.764;9.166;2023-04-01T05:07:53;8.10;99.90
14357;DHT22;7262;48.764;9.166;2023-04-01T05:10:20;8.10;99.90
14357;DHT22;7262;48.764;9.166;2023-04-01T05:12:47;8.20;99.90
14357;DHT22;7262;48.764;9.166;2023-04-01T05:15:13;8.20;99.90
14357;DHT22;7262;48.764;9.166;2023-04-01T05:17:41;8.20;99.90
14357;DHT22;7262;48.764;9.166;2023-04-01T05:20:08;8.40;99.90
14357;DHT22;7262;48.764;9.166;2023-04-01T05:22:36;8.30;99.90
14357;DHT22;7262;48.764;9.166;2023-04-01T05:25:03;8.40;99.90
14357;DHT22;7262;48.764;9.166;2023-04-01T05:27:30;8.40;99.90
14357;DHT22;7262;48.764;9.166;2023-04-01T05:29:57;8.40;99.90
14357;DHT22;7262;48.764;9.166;2023-04-01T05:32:25;8.40;99.90
14357;DHT22;7262;48.764;9.166;2023-04-01T05:34:53;8.50;99.90
14357;DHT22;7262;48.764;9.166;2023-04-01T05:37:20;8.60;99.90
14357;DHT22;7262;48.764;9.166;2023-04-01T05:39:48;8.60;99.90
14357;DHT22;7262;48.764;9.166;2023-04-01T05:42:15;8.70;99.90
14357;DHT22;7262;48.764;9.166;2023-04-01T05:44:42;8.80;99.90
14357;DHT22;7262;48.764;9.166;2023-04-01T05:47:09;8.90;99.90
14357;DHT22;7262;48.764;9.166;2023-04-01T05:49:35;8.90;99.90
14357;DHT22;7262;48.764;9.166;2023-04-01T05:52:04;9.00;99.90
14357;DHT22;7262;48.764;9.166;2023-04-01T05:54:31;9.00;99.90
14357;DHT22;7262;48.764;9.166;2023-04-01T05:56:57;9.10;99.90
14357;DHT22;7262;48.764;9.166;2023-04-01T05:59:24;9.20;99.90
14357;DHT22;7262;48.764;9.166;2023-04-01T06:01:53;9.30;99.90
14357;DHT22;7262;48.764;9.166;2023-04-01T06:04:20;9.30;99.90
14357;DHT22;7262;48.764;9.166;2023-04-01T06:06:47;9.40;99.90
14357;DHT22;7262;48.764;9.166;2023-04-01T06:09:16;9.40;99.90
14357;DHT22;7262;48.764;9.166;2023-04-01T06:11:46;9.60;99.90
14357;DHT22;7262;48.764;9.166;2023-04-01T06:14:20;9.70;99.90
14357;DHT22;7262;48.764;9.166;2023-04-01T06:16:58;9.80;99.90
14357;DHT22;7262;48.764;9.166;2023-04-01T06:19:30;10.00;99.90
14357;DHT22;7262;48.764;9.166;2023-04-01T06:22:12;10.60;99.90
14357;DHT22;7262;48.764;9.166;2023-04-01T06:24:46;11.00;99.90
14357;DHT22;7262;48.764;9.166;2023-04-01T06:27:16;11.30;99.90
14357;DHT22;7262;48.764;9.166;2023-04-01T06:29:57;11.00;99.90
14357;DHT22;7262;48.764;9.166;2023-04-01T06:32:33;10.80;99.90
14357;DHT22;7262;48.764;9.166;2023-04-01T06:37:52;10.50;99.90
14357;DHT22;7262;48.764;9.166;2023-04-01T06:40:31;10.40;99.90
14357;DHT22;7262;48.764;9.166;2023-04-01T06:43:05;10.30;99.90
14357;DHT22;7262;48.764;9.166;2023-04-01T06:45:36;10.20;99.90
14357;DHT22;7262;48.764;9.166;2023-04-01T06:48:17;10.20;99.90
14357;DHT22;7262;48.764;9.166;2023-04-01T06:50:49;10.10;99.90
14357;DHT22;7262;48.764;9.166;2023-04-01T06:53:19;9.80;99.90
14357;DHT22;7262;48.764;9.166;2023-04-01T06:55:50;10.00;99.90
14357;DHT22;7262;48.764;9.166;2023-04-01T06:58:20;10.10;99.90
14357;DHT22;7262;48.764;9.166;2023-04-01T07:00:48;10.00;99.90
14357;DHT22;7262;48.764;9.166;2023-04-01T07:05:53;10.00;99.90
14357;DHT22;7262;48.764;9.166;2023-04-01T07:08:21;10.20;99.90
14357;DHT22;7262;48.764;9.166;2023-04-01T07:13:42;10.40;99.90
14357;DHT22;7262;48.764;9.166;2023-04-01T07:16:12;10.40;99.90
14357;DHT22;7262;48.764;9.166;2023-04-01T07:18:43;10.30;99.90
14357;DHT22;7262;48.764;9.166;2023-04-01T07:21:14;10.30;99.90
14357;DHT22;7262;48.764;9.166;2023-04-01T07:23:44;10.40;99.90
14357;DHT22;7262;48.764;9.166;2023-04-01T07:26:35;10.40;99.90
14357;DHT22;7262;48.764;9.166;2023-04-01T07:34:39;10.20;99.90
14357;DHT22;7262;48.764;9.166;2023-04-01T07:37:08;10.20;99.90
14357;DHT22;7262;48.764;9.166;2023-04-01T07:39:44;10.30;99.90
14357;DHT22;7262;48.764;9.166;2023-04-01T07:42:16;10.20;99.90
14357;DHT22;7262;48.764;9.166;2023-04-01T07:44:50;10.20;99.90
14357;DHT22;7262;48.764;9.166;2023-04-01T07:47:21;10.10;99.90
14357;DHT22;7262;48.764;9.166;2023-04-01T07:49:54;10.20;99.90
14357;DHT22;7262;48.764;9.166;2023-04-01T07:52:28;10.20;99.90
14357;DHT22;7262;48.764;9.166;2023-04-01T07:54:58;10.20;99.90
14357;DHT22;7262;48.764;9.166;2023-04-01T07:57:29;10.30;99.90
14357;DHT22;7262;48.764;9.166;2023-04-01T08:00:00;10.30;99.90
14357;DHT22;7262;48.764;9.166;2023-04-01T08:02:30;10.40;99.90
14357;DHT22;7262;48.764;9.166;2023-04-01T08:05:06;10.50;99.90
14357;DHT22;7262;48.764;9.166;2023-04-01T08:07:38;10.50;99.90
14357;DHT22;7262;48.764;9.166;2023-04-01T08:10:10;10.50;99.90
14357;DHT22;7262;48.764;9.166;2023-04-01T08:12:41;10.60;99.90
14357;DHT22;7262;48.764;9.166;2023-04-01T08:15:12;10.70;99.90
14357;DHT22;7262;48.764;9.166;2023-04-01T08:17:45;10.70;99.90
14357;DHT22;7262;48.764;9.166;2023-04-01T08:22:48;10.60;99.90
14357;DHT22;7262;48.764;9.166;2023-04-01T08:25:17;10.60;99.90
14357;DHT22;7262;48.764;9.166;2023-04-01T08:27:53;10.70;99.90
14357;DHT22;7262;48.764;9.166;2023-04-01T08:30:23;10.80;99.90
14357;DHT22;7262;48.764;9.166;2023-04-01T08:32:51;10.80;99.90
14357;DHT22;7262;48.764;9.166;2023-04-01T08:35:22;10.70;99.90
14357;DHT22;7262;48.764;9.166;2023-04-01T08:37:52;10.60;99.90
14357;DHT22;7262;48.764;9.166;2023-04-01T08:40:37;10.60;99.90
14357;DHT22;7262;48.764;9.166;2023-04-01T08:43:09;10.50;99.90
14357;DHT22;7262;48.764;9.166;2023-04-01T08:45:41;10.30;99.90
14357;DHT22;7262;48.764;9.166;2023-04-01T08:48:15;10.20;99.90
14357;DHT22;7262;48.764;9.166;2023-04-01T08:50:53;10.00;99.90
14357;DHT22;7262;48.764;9.166;2023-04-01T08:53:26;9.90;99.90
14357;DHT22;7262;48.764;9.166;2023-04-01T08:56:03;9.80;99.90
14357;DHT22;7262;48.764;9.166;2023-04-01T08:58:34;9.60;99.90
14357;DHT22;7262;48.764;9.166;2023-04-01T09:04:03;9.40;99.90
14357;DHT22;7262;48.764;9.166;2023-04-01T09:15:01;9.70;99.90
14357;DHT22;7262;48.764;9.166;2023-04-01T09:17:33;9.90;99.90
14357;DHT22;7262;48.764;9.166;2023-04-01T09:20:05;10.20;99.90
14357;DHT22;7262;48.764;9.166;2023-04-01T09:25:15;10.50;99.90
14357;DHT22;7262;48.764;9.166;2023-04-01T09:27:48;10.60;99.90
14357;DHT22;7262;48.764;9.166;2023-04-01T09:35:55;11.70;99.90
14357;DHT22;7262;48.764;9.166;2023-04-01T09:38:28;11.70;99.90
14357;DHT22;7262;48.764;9.166;2023-04-01T09:40:56;11.60;99.90
14357;DHT22;7262;48.764;9.166;2023-04-01T09:43:27;11.40;99.90
14357;DHT22;7262;48.764;9.166;2023-04-01T09:46:09;11.10;99.90
14357;DHT22;7262;48.764;9.166;2023-04-01T09:48:41;10.90;99.90
14357;DHT22;7262;48.764;9.166;2023-04-01T09:51:16;10.80;99.90
14357;DHT22;7262;48.764;9.166;2023-04-01T09:53:49;10.80;99.90
14357;DHT22;7262;48.764;9.166;2023-04-01T09:56:24;10.60;99.90
14357;DHT22;7262;48.764;9.166;2023-04-01T09:59:07;10.50;99.90
14357;DHT22;7262;48.764;9.166;2023-04-01T10:01:42;10.60;99.90
14357;DHT22;7262;48.764;9.166;2023-04-01T10:04:19;10.60;99.90
14357;DHT22;7262;48.764;9.166;2023-04-01T10:07:14;10.70;99.90
14357;DHT22;7262;48.764;9.166;2023-04-01T10:09:58;10.80;99.90
14357;DHT22;7262;48.764;9.166;2023-04-01T10:18:17;10.90;99.90
14357;DHT22;7262;48.764;9.166;2023-04-01T10:20:57;10.90;99.90
14357;DHT22;7262;48.764;9.166;2023-04-01T10:31:58;11.90;99.90
14357;DHT22;7262;48.764;9.166;2023-04-01T10:34:46;12.00;99.90
14357;DHT22;7262;48.764;9.166;2023-04-01T10:37:23;12.10;99.90
14357;DHT22;7262;48.764;9.166;2023-04-01T10:40:12;12.20;99.90
14357;DHT22;7262;48.764;9.166;2023-04-01T10:45:39;11.90;99.90
14357;DHT22;7262;48.764;9.166;2023-04-01T10:51:02;12.00;99.90
14357;DHT22;7262;48.764;9.166;2023-04-01T10:53:38;12.30;99.90
14357;DHT22;7262;48.764;9.166;2023-04-01T10:58:59;12.20;99.90
14357;DHT22;7262;48.764;9.166;2023-04-01T11:01:35;12.10;99.90
14357;DHT22;7262;48.764;9.166;2023-04-01T11:04:31;12.10;99.90
14357;DHT22;7262;48.764;9.166;2023-04-01T11:07:24;12.00;99.90
14357;DHT22;7262;48.764;9.166;2023-04-01T11:10:15;11.80;99.90
14357;DHT22;7262;48.764;9.166;2023-04-01T11:12:54;11.60;99.90
14357;DHT22;7262;48.764;9.166;2023-04-01T11:15:41;11.50;99.90
14357;DHT22;7262;48.764;9.166;2023-04-01T11:18:20;11.80;99.90
14357;DHT22;7262;48.764;9.166;2023-04-01T11:21:05;12.00;99.90
14357;DHT22;7262;48.764;9.166;2023-04-01T11:23:49;12.60;99.90
14357;DHT22;7262;48.764;9.166;2023-04-01T11:26:20;13.10;99.90
14357;DHT22;7262;48.764;9.166;2023-04-01T11:28:58;13.50;99.90
14357;DHT22;7262;48.764;9.166;2023-04-01T11:31:34;13.80;99.90
14357;DHT22;7262;48.764;9.166;2023-04-01T11:34:07;14.00;99.90
14357;DHT22;7262;48.764;9.166;2023-04-01T11:36:41;13.90;99.90
14357;DHT22;7262;48.764;9.166;2023-04-01T11:39:13;13.40;99.90
14357;DHT22;7262;48.764;9.166;2023-04-01T11:41:48;13.30;99.90
14357;DHT22;7262;48.764;9.166;2023-04-01T11:44:17;13.10;99.90
14357;DHT22;7262;48.764;9.166;2023-04-01T11:46:48;13.30;99.90
14357;DHT22;7262;48.764;9.166;2023-04-01T11:49:29;13.30;99.90
14357;DHT22;7262;48.764;9.166;2023-04-01T11:52:12;13.00;99.90
14357;DHT22;7262;48.764;9.166;2023-04-01T11:54:54;12.70;99.90
14357;DHT22;7262;48.764;9.166;2023-04-01T11:57:34;12.50;99.90
14357;DHT22;7262;48.764;9.166;2023-04-01T12:00:05;12.30;99.90
14357;DHT22;7262;48.764;9.166;2023-04-01T12:02:50;12.20;99.90
14357;DHT22;7262;48.764;9.166;2023-04-01T12:05:32;12.30;99.90
14357;DHT22;7262;48.764;9.166;2023-04-01T12:08:04;12.40;99.90
14357;DHT22;7262;48.764;9.166;2023-04-01T12:10:42;12.40;99.90
14357;DHT22;7262;48.764;9.166;2023-04-01T12:13:16;12.30;99.90
14357;DHT22;7262;48.764;9.166;2023-04-01T12:16:02;12.10;99.90
14357;DHT22;7262;48.764;9.166;2023-04-01T12:18:31;12.10;99.90
14357;DHT22;7262;48.764;9.166;2023-04-01T12:21:02;12.00;99.90
14357;DHT22;7262;48.764;9.166;2023-04-01T12:23:42;11.90;99.90
14357;DHT22;7262;48.764;9.166;2023-04-01T12:26:27;11.90;99.90
14357;DHT22;7262;48.764;9.166;2023-04-01T12:29:07;11.90;99.90
14357;DHT22;7262;48.764;9.166;2023-04-01T12:31:37;12.00;99.90
14357;DHT22;7262;48.764;9.166;2023-04-01T12:36:54;11.90;99.90
14357;DHT22;7262;48.764;9.166;2023-04-01T12:39:29;12.10;99.90
14357;DHT22;7262;48.764;9.166;2023-04-01T12:44:51;12.50;99.90
14357;DHT22;7262;48.764;9.166;2023-04-01T12:50:10;13.00;99.90
14357;DHT22;7262;48.764;9.166;2023-04-01T12:52:45;13.40;99.90
14357;DHT22;7262;48.764;9.166;2023-04-01T12:55:35;13.30;99.90
14357;DHT22;7262;48.764;9.166;2023-04-01T13:01:03;13.40;99.90
14357;DHT22;7262;48.764;9.166;2023-04-01T13:03:47;13.60;99.90
14357;DHT22;7262;48.764;9.166;2023-04-01T13:09:04;13.60;99.90
14357;DHT22;7262;48.764;9.166;2023-04-01T13:11:35;13.20;99.90
14357;DHT22;7262;48.764;9.166;2023-04-01T13:14:10;13.00;99.90
14357;DHT22;7262;48.764;9.166;2023-04-01T13:16:43;13.00;99.90
14357;DHT22;7262;48.764;9.166;2023-04-01T13:19:13;12.70;99.90
14357;DHT22;7262;48.764;9.166;2023-04-01T13:21:50;12.60;99.90
14357;DHT22;7262;48.764;9.166;2023-04-01T13:24:23;12.80;99.90
14357;DHT22;7262;48.764;9.166;2023-04-01T13:26:56;12.60;99.90
14357;DHT22;7262;48.764;9.166;2023-04-01T13:29:25;12.60;99.90
14357;DHT22;7262;48.764;9.166;2023-04-01T13:32:03;12.80;99.90
14357;DHT22;7262;48.764;9.166;2023-04-01T13:34:35;12.80;99.90
14357;DHT22;7262;48.764;9.166;2023-04-01T13:37:15;13.10;99.90
14357;DHT22;7262;48.764;9.166;2023-04-01T13:39:48;12.90;99.90
14357;DHT22;7262;48.764;9.166;2023-04-01T13:42:21;13.00;99.90
14357;DHT22;7262;48.764;9.166;2023-04-01T13:44:51;12.80;99.90
14357;DHT22;7262;48.764;9.166;2023-04-01T13:47:26;12.80;99.90
14357;DHT22;7262;48.764;9.166;2023-04-01T13:50:08;12.70;99.90
14357;DHT22;7262;48.764;9.166;2023-04-01T13:52:47;12.50;99.90
14357;DHT22;7262;48.764;9.166;2023-04-01T14:00:45;12.90;99.90
14357;DHT22;7262;48.764;9.166;2023-04-01T14:06:08;13.20;99.90
14357;DHT22;7262;48.764;9.166;2023-04-01T14:11:24;13.00;99.90
14357;DHT22;7262;48.764;9.166;2023-04-01T14:13:56;12.90;99.90
14357;DHT22;7262;48.764;9.166;2023-04-01T14:16:29;13.00;99.90
14357;DHT22;7262;48.764;9.166;2023-04-01T14:19:03;12.80;99.90
14357;DHT22;7262;48.764;9.166;2023-04-01T14:21:37;12.70;99.90
14357;DHT22;7262;48.764;9.166;2023-04-01T14:24:18;12.70;99.90
14357;DHT22;7262;48.764;9.166;2023-04-01T14:29:47;12.20;99.90
14357;DHT22;7262;48.764;9.166;2023-04-01T14:32:20;12.00;99.90
14357;DHT22;7262;48.764;9.166;2023-04-01T14:34:53;12.00;99.90
14357;DHT22;7262;48.764;9.166;2023-04-01T14:37:32;12.20;99.90
14357;DHT22;7262;48.764;9.166;2023-04-01T14:40:14;12.20;99.90
14357;DHT22;7262;48.764;9.166;2023-04-01T14:42:51;12.10;99.90
14357;DHT22;7262;48.764;9.166;2023-04-01T14:45:30;12.10;99.90
14357;DHT22;7262;48.764;9.166;2023-04-01T14:48:04;12.10;99.90
14357;DHT22;7262;48.764;9.166;2023-04-01T14:50:40;12.20;99.90
14357;DHT22;7262;48.764;9.166;2023-04-01T14:53:12;12.30;99.90
14357;DHT22;7262;48.764;9.166;2023-04-01T14:55:45;12.30;99.90
14357;DHT22;7262;48.764;9.166;2023-04-01T14:58:14;12.40;99.90
14357;DHT22;7262;48.764;9.166;2023-04-01T15:00:48;12.20;99.90
14357;DHT22;7262;48.764;9.166;2023-04-01T15:03:19;12.10;99.90
14357;DHT22;7262;48.764;9.166;2023-04-01T15:05:48;12.20;99.90
14357;DHT22;7262;48.764;9.166;2023-04-01T15:08:18;12.30;99.90
14357;DHT22;7262;48.764;9.166;2023-04-01T15:10:49;12.50;99.90
14357;DHT22;7262;48.764;9.166;2023-04-01T15:13:24;12.60;99.90
14357;DHT22;7262;48.764;9.166;2023-04-01T15:16:01;12.40;99.90
14357;DHT22;7262;48.764;9.166;2023-04-01T15:18:33;12.40;99.90
14357;DHT22;7262;48.764;9.166;2023-04-01T15:21:06;12.30;99.90
14357;DHT22;7262;48.764;9.166;2023-04-01T15:23:52;12.20;99.90
14357;DHT22;7262;48.764;9.166;2023-04-01T15:26:35;12.10;99.90
14357;DHT22;7262;48.764;9.166;2023-04-01T15:29:09;12.10;99.90
14357;DHT22;7262;48.764;9.166;2023-04-01T15:31:38;12.20;99.90
14357;DHT22;7262;48.764;9.166;2023-04-01T15:37:02;12.30;99.90
14357;DHT22;7262;48.764;9.166;2023-04-01T15:39:38;12.20;99.90
14357;DHT22;7262;48.764;9.166;2023-04-01T15:44:52;12.10;99.90
14357;DHT22;7262;48.764;9.166;2023-04-01T15:47:28;12.20;99.90
14357;DHT22;7262;48.764;9.166;2023-04-01T15:50:00;12.00;99.90
14357;DHT22;7262;48.764;9.166;2023-04-01T15:52:35;11.90;99.90
14357;DHT22;7262;48.764;9.166;2023-04-01T15:55:19;11.70;99.90
14357;DHT22;7262;48.764;9.166;2023-04-01T15:57:51;11.70;99.90
14357;DHT22;7262;48.764;9.166;2023-04-01T16:00:22;11.80;99.90
14357;DHT22;7262;48.764;9.166;2023-04-01T16:02:54;11.70;99.90
14357;DHT22;7262;48.764;9.166;2023-04-01T16:05:30;11.60;99.90
14357;DHT22;7262;48.764;9.166;2023-04-01T16:08:11;11.70;99.90
14357;DHT22;7262;48.764;9.166;2023-04-01T16:13:48;11.80;99.90
14357;DHT22;7262;48.764;9.166;2023-04-01T16:16:23;11.90;99.90
14357;DHT22;7262;48.764;9.166;2023-04-01T16:18:58;11.90;99.90
14357;DHT22;7262;48.764;9.166;2023-04-01T16:21:34;11.80;99.90
14357;DHT22;7262;48.764;9.166;2023-04-01T16:24:03;11.80;99.90
14357;DHT22;7262;48.764;9.166;2023-04-01T16:26:34;11.70;99.90
14357;DHT22;7262;48.764;9.166;2023-04-01T16:29:06;11.60;99.90
14357;DHT22;7262;48.764;9.166;2023-04-01T16:31:38;11.50;99.90
14357;DHT22;7262;48.764;9.166;2023-04-01T16:34:10;11.50;99.90
14357;DHT22;7262;48.764;9.166;2023-04-01T16:36:41;11.50;99.90
14357;DHT22;7262;48.764;9.166;2023-04-01T16:39:19;11.60;99.90
14357;DHT22;7262;48.764;9.166;2023-04-01T16:41:49;11.60;99.90
14357;DHT22;7262;48.764;9.166;2023-04-01T16:44:19;11.40;99.90
14357;DHT22;7262;48.764;9.166;2023-04-01T16:46:48;11.40;99.90
14357;DHT22;7262;48.764;9.166;2023-04-01T16:49:27;11.30;99.90
14357;DHT22;7262;48.764;9.166;2023-04-01T16:54:51;11.30;99.90
14357;DHT22;7262;48.764;9.166;2023-04-01T16:57:21;11.40;99.90
14357;DHT22;7262;48.764;9.166;2023-04-01T16:59:54;11.30;99.90
14357;DHT22;7262;48.764;9.166;2023-04-01T17:02:25;11.40;99.90
14357;DHT22;7262;48.764;9.166;2023-04-01T17:04:57;11.50;99.90
14357;DHT22;7262;48.764;9.166;2023-04-01T17:07:26;11.40;99.90
14357;DHT22;7262;48.764;9.166;2023-04-01T17:10:00;11.40;99.90
14357;DHT22;7262;48.764;9.166;2023-04-01T17:12:32;11.40;99.90
14357;DHT22;7262;48.764;9.166;2023-04-01T17:15:04;11.50;99.90
14357;DHT22;7262;48.764;9.166;2023-04-01T17:17:37;11.50;99.90
14357;DHT22;7262;48.764;9.166;2023-04-01T17:20:14;11.50;99.90
14357;DHT22;7262;48.764;9.166;2023-04-01T17:22:47;11.40;99.90
14357;DHT22;7262;48.764;9.166;2023-04-01T17:25:38;11.40;99.90
14357;DHT22;7262;48.764;9.166;2023-04-01T17:28:10;11.30;99.90
14357;DHT22;7262;48.764;9.166;2023-04-01T17:30:41;11.30;99.90
14357;DHT22;7262;48.764;9.166;2023-04-01T17:33:24;11.30;99.90
14357;DHT22;7262;48.764;9.166;2023-04-01T17:36:01;11.20;99.90
14357;DHT22;7262;48.764;9.166;2023-04-01T17:41:19;11.20;99.90
14357;DHT22;7262;48.764;9.166;2023-04-01T17:43:52;11.20;99.90
14357;DHT22;7262;48.764;9.166;2023-04-01T17:46:27;11.20;99.90
14357;DHT22;7262;48.764;9.166;2023-04-01T17:49:00;11.10;99.90
14357;DHT22;7262;48.764;9.166;2023-04-01T17:51:29;11.20;99.90
14357;DHT22;7262;48.764;9.166;2023-04-01T17:53:59;11.20;99.90
14357;DHT22;7262;48.764;9.166;2023-04-01T17:56:37;11.10;99.90
14357;DHT22;7262;48.764;9.166;2023-04-01T17:59:09;11.10;99.90
14357;DHT22;7262;48.764;9.166;2023-04-01T18:01:45;11.20;99.90
14357;DHT22;7262;48.764;9.166;2023-04-01T18:09:41;11.00;99.90
14357;DHT22;7262;48.764;9.166;2023-04-01T18:12:13;11.00;99.90